Warning: Javascript must be enabled to use all the features on this page!


Page Loading - Please Wait...

* We've detected you're using a mobile device. Find our Next Generation Station Page here.
Click to hideNews Bulletins

Peak Streamflow for the Nation

USGS 01475001 Mantua Creek at East Holly Avenue at Pitman NJ

Gloucester County, New Jersey
Hydrologic Unit Code 02040202
Latitude  39°44'20", Longitude  75°06'52" NAD83
Drainage area 6.24  square miles
Gage datum 55.66 feet above NAVD88
Output formats
Table
Graph
Tab-separated file
peakfq (watstore) format
Reselect output format
Water
Year
Date Gage
Height
(feet)
Stream-
flow
(cfs)
1940 1940-09-01 6.643 4,2007
1942 1942-08-12 1.473 65.0
1943 1943-04-19 1.433 57.0
1944 1944-09-14 1.723 119
1945 1945-07-17 1.683 109
1946 1946-07-22 1.703 114
1947 1947-07-19 1.443 59.0
1948 1948-02-14 1.663 104
1949 1949-05-03 1.373 47.0
1950 1950-07-10 1.983 194
1951 1950-11-25 1.783 135
1952 1952-08-10 2.103 233
1953 1953-06-13 1.563 83.0
1954 1953-12-14 1.473 65.0
1955 1955-08-13 1.763 130
1956 1955-10-14 1.413 54.0
1957 1956-11-02 1.623 96.0
1958 1958-08-25 1.653 102
1959 1959-07-14 1.833 149
1960 1960-09-12 2.123 240
1961 1961-01-01 1.513 72.0
1962 1962-06-24 1.603 91.0
1963 1963-03-06 1.743 124
1964 1963-11-07 1.483 66.0
1965 1964-12-12 1.273 32.0
1966 1966-09-14 1.473 65.0
1967 1967-08-10 3.053 668
1968 1968-01-14 2.443 359
1969 1969-09-03 1.843 152
1970 1969-12-26 1.723 119
1971 1971-08-28 2.723 470
1972 1972-06-22 1.813 143
1973 1973-02-02 1.843 152
1974 1973-12-21 1.563 83.0
1975 1975-07-13 2.463 366
1976 1976-01-27 1.573 85.0
1977 1977-07-12 1.373 46.0
1978 1977-11-08 1.583 87.0
1979 1979-05-25 1.833 145
1980 1980-06-30 1.543 79.0
1981 1981-06-26 1.833 149
1982 1982-05-29 2.203 267
1983 1983-04-16 1.923 170
1984 1984-04-05 2.133 240
1985 1985-09-27 1.443 57.0
1986 1986-02-18 1.373 45.0
1987 1986-12-25 1.933 178
1988 1988-02-16 1.593 87.0
1989 1989-07-05 2.013 199
1990 1990-05-11 1.933 175
1991 1991-07-13 1.683 109
1992 1991-12-03 1.733 122
1993 1993-03-18 1.753 127
1994 1994-03-10 1.693 112
1999 1999-09-16 2.343 320
2003 2003-09-04 5.103,6 242
2004 2004-07-27 6.963 457
2005 2005-04-02 5.493 274
2006 2006-07-06 5.063 239
2007 2007-04-15 6.053 330
2008 2008-08-10 6.043 329
2009 2008-12-12 4.213 170
2010 2010-03-13 5.04 377
2011 2011-08-14 7.31 1,080
2012 2011-12-08 3.95 214
2013 2013-08-13 5.80 564
2014 2014-06-10 5.32 444
2015 2015-06-28 4.45 282
2016 2015-10-02 3.79 197
2017 2017-07-24 4.79 338
2018 2018-02-11 5.01 378
2019 2018-10-12 5.40 463
?
  Peak Gage-Height Qualification Codes.
?
  Peak Streamflow Qualification Codes.